sensor_id;sensor_type;location;lat;lon;timestamp;pressure;altitude;pressure_sealevel;temperature;humidity
58385;BME280;44185;47.844;8.966;2022-09-14T00:01:29;95468.09;;;17.30;100.00
58385;BME280;44185;47.844;8.966;2022-09-14T00:03:56;95463.91;;;17.21;100.00
58385;BME280;44185;47.844;8.966;2022-09-14T00:06:22;95460.38;;;17.20;100.00
58385;BME280;44185;47.844;8.966;2022-09-14T00:08:49;95455.34;;;17.10;100.00
58385;BME280;44185;47.844;8.966;2022-09-14T00:11:15;95462.38;;;17.11;100.00
58385;BME280;44185;47.844;8.966;2022-09-14T00:13:44;95445.81;;;17.23;100.00
58385;BME280;44185;47.844;8.966;2022-09-14T00:16:12;95437.84;;;17.30;100.00
58385;BME280;44185;47.844;8.966;2022-09-14T00:18:38;95432.41;;;17.16;100.00
58385;BME280;44185;47.844;8.966;2022-09-14T00:21:08;95429.63;;;17.09;100.00
58385;BME280;44185;47.844;8.966;2022-09-14T00:23:35;95423.63;;;17.00;100.00
58385;BME280;44185;47.844;8.966;2022-09-14T00:26:02;95423.25;;;17.04;100.00
58385;BME280;44185;47.844;8.966;2022-09-14T00:28:28;95424.63;;;16.99;100.00
58385;BME280;44185;47.844;8.966;2022-09-14T00:30:55;95416.19;;;16.96;100.00
58385;BME280;44185;47.844;8.966;2022-09-14T00:33:21;95412.88;;;16.94;100.00
58385;BME280;44185;47.844;8.966;2022-09-14T00:35:46;95417.97;;;16.88;100.00
58385;BME280;44185;47.844;8.966;2022-09-14T00:38:11;95408.72;;;16.91;100.00
58385;BME280;44185;47.844;8.966;2022-09-14T00:40:37;95406.13;;;16.98;100.00
58385;BME280;44185;47.844;8.966;2022-09-14T00:43:07;95406.88;;;16.92;100.00
58385;BME280;44185;47.844;8.966;2022-09-14T00:45:37;95399.75;;;16.99;100.00
58385;BME280;44185;47.844;8.966;2022-09-14T00:48:04;95410.88;;;17.03;100.00
58385;BME280;44185;47.844;8.966;2022-09-14T00:50:30;95410.06;;;17.02;100.00
58385;BME280;44185;47.844;8.966;2022-09-14T00:52:56;95403.31;;;17.06;100.00
58385;BME280;44185;47.844;8.966;2022-09-14T00:55:22;95402.28;;;17.07;100.00
58385;BME280;44185;47.844;8.966;2022-09-14T00:57:48;95405.19;;;17.12;100.00
58385;BME280;44185;47.844;8.966;2022-09-14T01:00:18;95402.47;;;17.06;100.00
58385;BME280;44185;47.844;8.966;2022-09-14T01:02:44;95403.50;;;17.05;100.00
58385;BME280;44185;47.844;8.966;2022-09-14T01:05:11;95405.34;;;17.04;100.00
58385;BME280;44185;47.844;8.966;2022-09-14T01:08:03;95409.66;;;17.05;100.00
58385;BME280;44185;47.844;8.966;2022-09-14T01:10:45;95412.72;;;17.02;100.00
58385;BME280;44185;47.844;8.966;2022-09-14T01:13:21;95420.16;;;17.07;100.00
58385;BME280;44185;47.844;8.966;2022-09-14T01:15:57;95418.13;;;17.09;100.00
58385;BME280;44185;47.844;8.966;2022-09-14T01:18:27;95411.50;;;17.05;100.00
58385;BME280;44185;47.844;8.966;2022-09-14T01:20:56;95415.00;;;17.05;100.00
58385;BME280;44185;47.844;8.966;2022-09-14T01:23:29;95408.47;;;17.08;100.00
58385;BME280;44185;47.844;8.966;2022-09-14T01:26:13;95401.66;;;17.05;100.00
58385;BME280;44185;47.844;8.966;2022-09-14T01:28:51;95405.34;;;17.04;100.00
58385;BME280;44185;47.844;8.966;2022-09-14T01:31:22;95408.22;;;17.03;100.00
58385;BME280;44185;47.844;8.966;2022-09-14T01:33:54;95414.97;;;16.98;100.00
58385;BME280;44185;47.844;8.966;2022-09-14T01:36:23;95425.00;;;16.96;100.00
58385;BME280;44185;47.844;8.966;2022-09-14T01:38:52;95415.94;;;16.90;100.00
58385;BME280;44185;47.844;8.966;2022-09-14T01:41:22;95413.81;;;16.86;100.00
58385;BME280;44185;47.844;8.966;2022-09-14T01:43:52;95409.56;;;16.92;100.00
58385;BME280;44185;47.844;8.966;2022-09-14T01:46:20;95420.25;;;16.92;100.00
58385;BME280;44185;47.844;8.966;2022-09-14T01:49:04;95427.41;;;16.84;100.00
58385;BME280;44185;47.844;8.966;2022-09-14T01:51:37;95429.06;;;16.85;100.00
58385;BME280;44185;47.844;8.966;2022-09-14T01:54:07;95429.06;;;16.85;100.00
58385;BME280;44185;47.844;8.966;2022-09-14T01:56:37;95433.81;;;16.90;100.00
58385;BME280;44185;47.844;8.966;2022-09-14T01:59:09;95435.59;;;16.83;100.00
58385;BME280;44185;47.844;8.966;2022-09-14T02:01:42;95429.44;;;16.82;100.00
58385;BME280;44185;47.844;8.966;2022-09-14T02:04:12;95429.94;;;16.93;100.00
58385;BME280;44185;47.844;8.966;2022-09-14T02:06:41;95431.97;;;16.90;100.00
58385;BME280;44185;47.844;8.966;2022-09-14T02:09:11;95428.91;;;16.94;100.00
58385;BME280;44185;47.844;8.966;2022-09-14T02:11:38;95416.00;;;16.97;100.00
58385;BME280;44185;47.844;8.966;2022-09-14T02:14:05;95397.06;;;16.99;100.00
58385;BME280;44185;47.844;8.966;2022-09-14T02:16:31;95388.16;;;16.85;100.00
58385;BME280;44185;47.844;8.966;2022-09-14T02:18:57;95388.56;;;16.88;100.00
58385;BME280;44185;47.844;8.966;2022-09-14T02:21:25;95396.28;;;16.76;100.00
58385;BME280;44185;47.844;8.966;2022-09-14T02:23:51;95381.53;;;16.81;100.00
58385;BME280;44185;47.844;8.966;2022-09-14T02:26:18;95382.16;;;16.83;100.00
58385;BME280;44185;47.844;8.966;2022-09-14T02:28:45;95392.22;;;16.81;100.00
58385;BME280;44185;47.844;8.966;2022-09-14T02:31:22;95380.88;;;16.78;100.00
58385;BME280;44185;47.844;8.966;2022-09-14T02:33:58;95377.28;;;16.64;100.00
58385;BME280;44185;47.844;8.966;2022-09-14T02:36:33;95392.03;;;16.60;100.00
58385;BME280;44185;47.844;8.966;2022-09-14T02:39:05;95357.81;;;16.71;100.00
58385;BME280;44185;47.844;8.966;2022-09-14T02:41:40;95379.38;;;16.69;100.00
58385;BME280;44185;47.844;8.966;2022-09-14T02:44:15;95407.69;;;16.63;100.00
58385;BME280;44185;47.844;8.966;2022-09-14T02:46:47;95366.66;;;16.71;100.00
58385;BME280;44185;47.844;8.966;2022-09-14T02:49:22;95394.13;;;16.65;100.00
58385;BME280;44185;47.844;8.966;2022-09-14T02:51:55;95401.13;;;16.66;100.00
58385;BME280;44185;47.844;8.966;2022-09-14T02:54:23;95401.97;;;16.66;100.00
58385;BME280;44185;47.844;8.966;2022-09-14T02:56:51;95399.69;;;16.63;100.00
58385;BME280;44185;47.844;8.966;2022-09-14T02:59:17;95388.16;;;16.63;100.00
58385;BME280;44185;47.844;8.966;2022-09-14T03:01:44;95385.88;;;16.60;100.00
58385;BME280;44185;47.844;8.966;2022-09-14T03:04:09;95384.22;;;16.59;100.00
58385;BME280;44185;47.844;8.966;2022-09-14T03:06:34;95380.97;;;16.63;100.00
58385;BME280;44185;47.844;8.966;2022-09-14T03:09:00;95392.50;;;16.64;100.00
58385;BME280;44185;47.844;8.966;2022-09-14T03:11:26;95399.06;;;16.61;100.00
58385;BME280;44185;47.844;8.966;2022-09-14T03:13:51;95392.03;;;16.60;100.00
58385;BME280;44185;47.844;8.966;2022-09-14T03:16:17;95393.72;;;16.61;100.00
58385;BME280;44185;47.844;8.966;2022-09-14T03:18:44;95385.28;;;16.64;100.00
58385;BME280;44185;47.844;8.966;2022-09-14T03:21:11;95373.81;;;16.64;100.00
58385;BME280;44185;47.844;8.966;2022-09-14T03:23:38;95372.88;;;16.78;100.00
58385;BME280;44185;47.844;8.966;2022-09-14T03:26:08;95367.53;;;16.78;100.00
58385;BME280;44185;47.844;8.966;2022-09-14T03:28:33;95364.63;;;16.73;100.00
58385;BME280;44185;47.844;8.966;2022-09-14T03:30:59;95379.78;;;16.66;100.00
58385;BME280;44185;47.844;8.966;2022-09-14T03:33:25;95383.56;;;16.56;100.00
58385;BME280;44185;47.844;8.966;2022-09-14T03:35:51;95390.91;;;16.48;100.00
58385;BME280;44185;47.844;8.966;2022-09-14T03:38:17;95390.25;;;16.45;100.00
58385;BME280;44185;47.844;8.966;2022-09-14T03:40:42;95389.00;;;16.41;100.00
58385;BME280;44185;47.844;8.966;2022-09-14T03:43:08;95387.56;;;16.45;100.00
58385;BME280;44185;47.844;8.966;2022-09-14T03:45:35;95387.03;;;16.50;100.00
58385;BME280;44185;47.844;8.966;2022-09-14T03:48:01;95377.59;;;16.54;100.00
58385;BME280;44185;47.844;8.966;2022-09-14T03:50:27;95371.31;;;16.62;100.00
58385;BME280;44185;47.844;8.966;2022-09-14T03:52:53;95370.69;;;16.60;100.00
58385;BME280;44185;47.844;8.966;2022-09-14T03:55:19;95380.09;;;16.56;100.00
58385;BME280;44185;47.844;8.966;2022-09-14T03:57:44;95368.84;;;16.61;100.00
58385;BME280;44185;47.844;8.966;2022-09-14T04:00:10;95363.88;;;16.58;100.00
58385;BME280;44185;47.844;8.966;2022-09-14T04:02:36;95361.84;;;16.60;100.00
58385;BME280;44185;47.844;8.966;2022-09-14T04:05:01;95362.41;;;16.55;100.00
58385;BME280;44185;47.844;8.966;2022-09-14T04:07:27;95357.91;;;16.55;100.00
58385;BME280;44185;47.844;8.966;2022-09-14T04:09:54;95360.38;;;16.57;100.00
58385;BME280;44185;47.844;8.966;2022-09-14T04:12:19;95367.38;;;16.58;100.00
58385;BME280;44185;47.844;8.966;2022-09-14T04:14:44;95376.22;;;16.59;100.00
58385;BME280;44185;47.844;8.966;2022-09-14T04:17:10;95369.22;;;16.58;100.00
58385;BME280;44185;47.844;8.966;2022-09-14T04:19:35;95366.53;;;16.58;100.00
58385;BME280;44185;47.844;8.966;2022-09-14T04:22:01;95365.47;;;16.52;100.00
58385;BME280;44185;47.844;8.966;2022-09-14T04:24:26;95376.16;;;16.52;100.00
58385;BME280;44185;47.844;8.966;2022-09-14T04:26:53;95370.19;;;16.50;100.00
58385;BME280;44185;47.844;8.966;2022-09-14T04:29:19;95381.88;;;16.49;100.00
58385;BME280;44185;47.844;8.966;2022-09-14T04:31:44;95384.34;;;16.50;100.00
58385;BME280;44185;47.844;8.966;2022-09-14T04:34:11;95380.28;;;16.54;100.00
58385;BME280;44185;47.844;8.966;2022-09-14T04:36:36;95382.38;;;16.59;100.00
58385;BME280;44185;47.844;8.966;2022-09-14T04:39:03;95379.53;;;16.61;100.00
58385;BME280;44185;47.844;8.966;2022-09-14T04:41:29;95378.56;;;16.68;100.00
58385;BME280;44185;47.844;8.966;2022-09-14T04:43:57;95385.94;;;16.66;100.00
58385;BME280;44185;47.844;8.966;2022-09-14T04:46:25;95386.56;;;16.68;100.00
58385;BME280;44185;47.844;8.966;2022-09-14T04:48:51;95393.38;;;16.71;100.00
58385;BME280;44185;47.844;8.966;2022-09-14T04:51:18;95388.28;;;16.76;100.00
58385;BME280;44185;47.844;8.966;2022-09-14T04:53:46;95386.38;;;16.70;100.00
58385;BME280;44185;47.844;8.966;2022-09-14T04:56:13;95383.13;;;16.75;100.00
58385;BME280;44185;47.844;8.966;2022-09-14T04:58:41;95388.41;;;16.68;100.00
58385;BME280;44185;47.844;8.966;2022-09-14T05:01:09;95390.88;;;16.70;100.00
58385;BME280;44185;47.844;8.966;2022-09-14T05:03:37;95387.81;;;16.73;100.00
58385;BME280;44185;47.844;8.966;2022-09-14T05:06:03;95376.13;;;16.74;100.00
58385;BME280;44185;47.844;8.966;2022-09-14T05:08:29;95384.78;;;16.76;100.00
58385;BME280;44185;47.844;8.966;2022-09-14T05:10:55;95381.03;;;16.70;100.00
58385;BME280;44185;47.844;8.966;2022-09-14T05:13:20;95372.25;;;16.76;100.00
58385;BME280;44185;47.844;8.966;2022-09-14T05:15:46;95376.22;;;16.59;100.00
58385;BME280;44185;47.844;8.966;2022-09-14T05:18:13;95365.28;;;16.53;100.00
58385;BME280;44185;47.844;8.966;2022-09-14T05:20:38;95368.84;;;16.61;100.00
58385;BME280;44185;47.844;8.966;2022-09-14T05:23:04;95369.91;;;16.66;100.00
58385;BME280;44185;47.844;8.966;2022-09-14T05:25:29;95364.75;;;16.65;100.00
58385;BME280;44185;47.844;8.966;2022-09-14T05:27:55;95365.78;;;16.64;100.00
58385;BME280;44185;47.844;8.966;2022-09-14T05:30:20;95366.66;;;16.71;100.00
58385;BME280;44185;47.844;8.966;2022-09-14T05:32:45;95370.16;;;16.72;100.00
58385;BME280;44185;47.844;8.966;2022-09-14T05:35:13;95360.28;;;16.72;100.00
58385;BME280;44185;47.844;8.966;2022-09-14T05:37:38;95363.03;;;16.57;100.00
58385;BME280;44185;47.844;8.966;2022-09-14T05:40:05;95370.22;;;16.56;100.00
58385;BME280;44185;47.844;8.966;2022-09-14T05:42:30;95365.59;;;16.65;100.00
58385;BME280;44185;47.844;8.966;2022-09-14T05:44:56;95356.34;;;16.68;100.00
58385;BME280;44185;47.844;8.966;2022-09-14T05:47:21;95368.72;;;16.69;100.00
58385;BME280;44185;47.844;8.966;2022-09-14T05:49:46;95364.81;;;16.72;100.00
58385;BME280;44185;47.844;8.966;2022-09-14T05:52:13;95374.69;;;16.71;100.00
58385;BME280;44185;47.844;8.966;2022-09-14T05:54:39;95374.06;;;16.69;100.00
58385;BME280;44185;47.844;8.966;2022-09-14T05:57:04;95379.81;;;16.73;100.00
58385;BME280;44185;47.844;8.966;2022-09-14T05:59:30;95377.78;;;16.75;100.00
58385;BME280;44185;47.844;8.966;2022-09-14T06:01:55;95382.31;;;16.74;100.00
58385;BME280;44185;47.844;8.966;2022-09-14T06:04:20;95384.41;;;16.79;100.00
58385;BME280;44185;47.844;8.966;2022-09-14T06:06:46;95389.34;;;16.82;100.00
58385;BME280;44185;47.844;8.966;2022-09-14T06:09:13;95398.63;;;16.86;100.00
58385;BME280;44185;47.844;8.966;2022-09-14T06:11:39;95388.41;;;16.90;100.00
58385;BME280;44185;47.844;8.966;2022-09-14T06:14:04;95388.63;;;16.95;100.00
58385;BME280;44185;47.844;8.966;2022-09-14T06:16:30;95389.50;;;17.03;100.00
58385;BME280;44185;47.844;8.966;2022-09-14T06:18:57;95384.03;;;17.11;100.00
58385;BME280;44185;47.844;8.966;2022-09-14T06:21:28;95385.91;;;17.17;100.00
58385;BME280;44185;47.844;8.966;2022-09-14T06:23:54;95370.56;;;17.26;100.00
58385;BME280;44185;47.844;8.966;2022-09-14T06:26:20;95375.13;;;17.32;100.00
58385;BME280;44185;47.844;8.966;2022-09-14T06:28:46;95369.22;;;17.44;100.00
58385;BME280;44185;47.844;8.966;2022-09-14T06:31:12;95365.22;;;17.62;100.00
58385;BME280;44185;47.844;8.966;2022-09-14T06:33:42;95371.63;;;17.74;100.00
58385;BME280;44185;47.844;8.966;2022-09-14T06:36:10;95370.25;;;17.92;100.00
58385;BME280;44185;47.844;8.966;2022-09-14T06:38:36;95372.38;;;18.04;100.00
58385;BME280;44185;47.844;8.966;2022-09-14T06:41:03;95360.88;;;18.17;100.00
58385;BME280;44185;47.844;8.966;2022-09-14T06:43:32;95359.47;;;18.28;100.00
58385;BME280;44185;47.844;8.966;2022-09-14T06:46:00;95369.00;;;18.44;100.00
58385;BME280;44185;47.844;8.966;2022-09-14T06:48:26;95381.13;;;18.53;100.00
58385;BME280;44185;47.844;8.966;2022-09-14T06:50:52;95379.94;;;18.63;100.00
58385;BME280;44185;47.844;8.966;2022-09-14T06:53:18;95374.34;;;18.71;100.00
58385;BME280;44185;47.844;8.966;2022-09-14T06:55:43;95378.28;;;18.82;100.00
58385;BME280;44185;47.844;8.966;2022-09-14T06:58:08;95377.06;;;18.92;100.00
58385;BME280;44185;47.844;8.966;2022-09-14T07:00:35;95384.88;;;18.93;100.00
58385;BME280;44185;47.844;8.966;2022-09-14T07:03:01;95383.03;;;18.87;100.00
58385;BME280;44185;47.844;8.966;2022-09-14T07:05:27;95387.13;;;18.83;100.00
58385;BME280;44185;47.844;8.966;2022-09-14T07:07:52;95384.06;;;18.79;100.00
58385;BME280;44185;47.844;8.966;2022-09-14T07:10:17;95395.59;;;18.79;100.00
58385;BME280;44185;47.844;8.966;2022-09-14T07:12:43;95396.44;;;18.87;100.00
58385;BME280;44185;47.844;8.966;2022-09-14T07:15:09;95392.91;;;18.93;100.00
58385;BME280;44185;47.844;8.966;2022-09-14T07:17:35;95389.81;;;18.96;100.00
58385;BME280;44185;47.844;8.966;2022-09-14T07:20:01;95393.34;;;19.10;100.00
58385;BME280;44185;47.844;8.966;2022-09-14T07:22:26;95405.91;;;19.17;100.00
58385;BME280;44185;47.844;8.966;2022-09-14T07:24:52;95412.72;;;19.33;100.00
58385;BME280;44185;47.844;8.966;2022-09-14T07:27:17;95416.63;;;19.44;100.00
58385;BME280;44185;47.844;8.966;2022-09-14T07:29:43;95421.34;;;19.49;100.00
58385;BME280;44185;47.844;8.966;2022-09-14T07:32:08;95414.34;;;19.54;100.00
58385;BME280;44185;47.844;8.966;2022-09-14T07:34:35;95423.22;;;19.55;100.00
58385;BME280;44185;47.844;8.966;2022-09-14T07:37:00;95420.75;;;19.53;100.00
58385;BME280;44185;47.844;8.966;2022-09-14T07:39:26;95427.34;;;19.58;100.00
58385;BME280;44185;47.844;8.966;2022-09-14T07:41:52;95424.19;;;19.67;100.00
58385;BME280;44185;47.844;8.966;2022-09-14T07:44:18;95424.41;;;19.80;100.00
58385;BME280;44185;47.844;8.966;2022-09-14T07:46:44;95420.00;;;19.92;100.00
58385;BME280;44185;47.844;8.966;2022-09-14T07:49:10;95419.16;;;19.98;100.00
58385;BME280;44185;47.844;8.966;2022-09-14T07:51:38;95423.72;;;19.91;100.00
58385;BME280;44185;47.844;8.966;2022-09-14T07:54:04;95431.59;;;19.86;100.00
58385;BME280;44185;47.844;8.966;2022-09-14T07:56:30;95429.56;;;19.74;100.00
58385;BME280;44185;47.844;8.966;2022-09-14T07:58:57;95433.06;;;19.82;100.00
58385;BME280;44185;47.844;8.966;2022-09-14T08:01:24;95452.00;;;20.00;100.00
58385;BME280;44185;47.844;8.966;2022-09-14T08:03:49;95454.88;;;19.99;100.00
58385;BME280;44185;47.844;8.966;2022-09-14T08:06:17;95455.91;;;20.05;100.00
58385;BME280;44185;47.844;8.966;2022-09-14T08:08:45;95449.69;;;20.11;100.00
58385;BME280;44185;47.844;8.966;2022-09-14T08:11:13;95445.72;;;20.27;100.00
58385;BME280;44185;47.844;8.966;2022-09-14T08:13:40;95451.63;;;20.43;100.00
58385;BME280;44185;47.844;8.966;2022-09-14T08:16:07;95455.50;;;20.54;100.00
58385;BME280;44185;47.844;8.966;2022-09-14T08:18:33;95471.38;;;20.62;100.00
58385;BME280;44185;47.844;8.966;2022-09-14T08:21:02;95477.50;;;20.76;100.00
58385;BME280;44185;47.844;8.966;2022-09-14T08:23:28;95496.19;;;20.64;100.00
58385;BME280;44185;47.844;8.966;2022-09-14T08:25:55;95491.81;;;20.70;100.00
58385;BME280;44185;47.844;8.966;2022-09-14T08:28:25;95500.06;;;20.75;100.00
58385;BME280;44185;47.844;8.966;2022-09-14T08:33:16;95511.72;;;20.55;100.00
58385;BME280;44185;47.844;8.966;2022-09-14T08:35:42;95502.63;;;20.56;100.00
58385;BME280;44185;47.844;8.966;2022-09-14T08:38:07;95493.69;;;20.63;100.00
58385;BME280;44185;47.844;8.966;2022-09-14T08:40:33;95482.91;;;20.70;100.00
58385;BME280;44185;47.844;8.966;2022-09-14T08:43:02;95483.78;;;20.63;100.00
58385;BME280;44185;47.844;8.966;2022-09-14T08:45:28;95484.81;;;20.62;100.00
58385;BME280;44185;47.844;8.966;2022-09-14T08:47:54;95485.25;;;20.59;100.00
58385;BME280;44185;47.844;8.966;2022-09-14T08:50:22;95486.88;;;20.60;100.00
58385;BME280;44185;47.844;8.966;2022-09-14T08:52:49;95480.06;;;20.64;100.00
58385;BME280;44185;47.844;8.966;2022-09-14T08:55:23;95480.84;;;20.72;100.00
58385;BME280;44185;47.844;8.966;2022-09-14T08:57:56;95474.47;;;20.66;100.00
58385;BME280;44185;47.844;8.966;2022-09-14T09:00:33;95482.53;;;20.66;100.00
58385;BME280;44185;47.844;8.966;2022-09-14T09:03:25;95482.66;;;20.78;100.00
58385;BME280;44185;47.844;8.966;2022-09-14T09:05:59;95465.28;;;20.81;100.00
58385;BME280;44185;47.844;8.966;2022-09-14T09:08:33;95461.78;;;20.80;99.57
58385;BME280;44185;47.844;8.966;2022-09-14T09:11:01;95443.72;;;20.87;100.00
58385;BME280;44185;47.844;8.966;2022-09-14T09:13:30;95441.13;;;20.99;100.00
58385;BME280;44185;47.844;8.966;2022-09-14T09:15:59;95453.56;;;21.00;98.48
58385;BME280;44185;47.844;8.966;2022-09-14T09:18:33;95449.38;;;21.11;98.48
58385;BME280;44185;47.844;8.966;2022-09-14T09:21:04;95437.00;;;21.29;99.96
58385;BME280;44185;47.844;8.966;2022-09-14T09:23:32;95443.53;;;21.40;98.57
58385;BME280;44185;47.844;8.966;2022-09-14T09:26:00;95448.91;;;21.40;97.56
58385;BME280;44185;47.844;8.966;2022-09-14T09:28:28;95434.88;;;21.38;95.26
58385;BME280;44185;47.844;8.966;2022-09-14T09:30:55;95429.19;;;21.47;94.59
58385;BME280;44185;47.844;8.966;2022-09-14T09:33:25;95434.94;;;21.50;95.41
58385;BME280;44185;47.844;8.966;2022-09-14T09:35:52;95425.41;;;21.54;93.33
58385;BME280;44185;47.844;8.966;2022-09-14T09:38:19;95427.72;;;21.70;95.12
58385;BME280;44185;47.844;8.966;2022-09-14T09:40:47;95425.13;;;21.63;95.93
58385;BME280;44185;47.844;8.966;2022-09-14T09:43:15;95424.41;;;21.49;95.46
58385;BME280;44185;47.844;8.966;2022-09-14T09:45:53;95426.22;;;21.55;95.91
58385;BME280;44185;47.844;8.966;2022-09-14T09:48:23;95424.28;;;21.62;96.58
58385;BME280;44185;47.844;8.966;2022-09-14T09:50:55;95423.69;;;21.60;96.58
58385;BME280;44185;47.844;8.966;2022-09-14T09:53:23;95411.72;;;21.56;95.37
58385;BME280;44185;47.844;8.966;2022-09-14T09:55:49;95409.25;;;21.73;94.61
58385;BME280;44185;47.844;8.966;2022-09-14T09:58:30;95403.28;;;21.90;93.04
58385;BME280;44185;47.844;8.966;2022-09-14T10:00:59;95401.03;;;21.87;93.94
58385;BME280;44185;47.844;8.966;2022-09-14T10:03:29;95398.31;;;22.06;92.95
58385;BME280;44185;47.844;8.966;2022-09-14T10:06:03;95395.72;;;22.18;92.23
58385;BME280;44185;47.844;8.966;2022-09-14T10:08:30;95389.22;;;22.07;92.23
58385;BME280;44185;47.844;8.966;2022-09-14T10:10:55;95387.84;;;22.16;93.46
58385;BME280;44185;47.844;8.966;2022-09-14T10:13:26;95382.00;;;22.19;93.44
58385;BME280;44185;47.844;8.966;2022-09-14T10:15:52;95375.31;;;21.91;92.13
58385;BME280;44185;47.844;8.966;2022-09-14T10:18:18;95370.06;;;21.96;93.84
58385;BME280;44185;47.844;8.966;2022-09-14T10:21:04;95357.75;;;21.88;91.68
58385;BME280;44185;47.844;8.966;2022-09-14T10:23:32;95355.47;;;22.04;93.98
58385;BME280;44185;47.844;8.966;2022-09-14T10:26:17;95348.13;;;22.11;90.65
58385;BME280;44185;47.844;8.966;2022-09-14T10:28:44;95348.03;;;22.18;90.51
58385;BME280;44185;47.844;8.966;2022-09-14T10:31:16;95346.31;;;22.24;91.83
58385;BME280;44185;47.844;8.966;2022-09-14T10:33:43;95336.28;;;22.43;91.49
58385;BME280;44185;47.844;8.966;2022-09-14T10:36:14;95330.09;;;22.55;91.73
58385;BME280;44185;47.844;8.966;2022-09-14T10:38:44;95335.69;;;22.53;88.43
58385;BME280;44185;47.844;8.966;2022-09-14T10:41:21;95341.59;;;22.62;90.59
58385;BME280;44185;47.844;8.966;2022-09-14T10:44:11;95330.44;;;22.59;87.71
58385;BME280;44185;47.844;8.966;2022-09-14T10:46:44;95322.22;;;22.53;88.26
58385;BME280;44185;47.844;8.966;2022-09-14T10:49:23;95318.09;;;22.51;90.42
58385;BME280;44185;47.844;8.966;2022-09-14T10:51:59;95319.19;;;22.50;88.92
58385;BME280;44185;47.844;8.966;2022-09-14T10:54:51;95315.28;;;22.33;84.62
58385;BME280;44185;47.844;8.966;2022-09-14T10:57:24;95299.50;;;22.49;87.50
58385;BME280;44185;47.844;8.966;2022-09-14T10:59:55;95304.41;;;22.52;86.20
58385;BME280;44185;47.844;8.966;2022-09-14T11:05:28;95307.63;;;22.73;89.82
58385;BME280;44185;47.844;8.966;2022-09-14T11:07:59;95310.44;;;22.78;87.84
58385;BME280;44185;47.844;8.966;2022-09-14T11:10:31;95303.75;;;22.69;84.81
58385;BME280;44185;47.844;8.966;2022-09-14T11:13:16;95305.06;;;22.78;86.22
58385;BME280;44185;47.844;8.966;2022-09-14T11:15:50;95311.41;;;22.84;84.86
58385;BME280;44185;47.844;8.966;2022-09-14T11:18:23;95292.28;;;22.74;82.95
58385;BME280;44185;47.844;8.966;2022-09-14T11:21:02;95288.63;;;22.80;84.73
58385;BME280;44185;47.844;8.966;2022-09-14T11:23:39;95296.06;;;22.85;85.39
58385;BME280;44185;47.844;8.966;2022-09-14T11:26:10;95294.16;;;22.73;83.12
58385;BME280;44185;47.844;8.966;2022-09-14T11:28:39;95297.78;;;22.91;85.97
58385;BME280;44185;47.844;8.966;2022-09-14T11:31:09;95304.59;;;22.94;86.15
58385;BME280;44185;47.844;8.966;2022-09-14T11:33:38;95309.16;;;22.93;82.24
58385;BME280;44185;47.844;8.966;2022-09-14T11:36:09;95302.13;;;22.92;82.25
58385;BME280;44185;47.844;8.966;2022-09-14T11:38:43;95294.41;;;22.84;81.67
58385;BME280;44185;47.844;8.966;2022-09-14T11:41:18;95293.81;;;22.94;80.82
58385;BME280;44185;47.844;8.966;2022-09-14T11:43:47;95294.53;;;23.01;84.08
58385;BME280;44185;47.844;8.966;2022-09-14T11:46:17;95300.03;;;22.82;85.33
58385;BME280;44185;47.844;8.966;2022-09-14T11:48:51;95298.03;;;22.89;85.35
58385;BME280;44185;47.844;8.966;2022-09-14T11:51:21;95303.44;;;22.89;86.10
58385;BME280;44185;47.844;8.966;2022-09-14T11:53:49;95297.31;;;22.94;84.02
58385;BME280;44185;47.844;8.966;2022-09-14T11:56:21;95290.88;;;22.83;82.91
58385;BME280;44185;47.844;8.966;2022-09-14T11:58:48;95292.28;;;22.74;82.93
58385;BME280;44185;47.844;8.966;2022-09-14T12:01:29;95288.28;;;22.88;82.94
58385;BME280;44185;47.844;8.966;2022-09-14T12:04:12;95287.94;;;22.97;83.71
58385;BME280;44185;47.844;8.966;2022-09-14T12:06:49;95290.16;;;22.88;81.19
58385;BME280;44185;47.844;8.966;2022-09-14T12:09:44;95293.81;;;22.94;80.66
58385;BME280;44185;47.844;8.966;2022-09-14T12:12:32;95297.06;;;22.96;79.97
58385;BME280;44185;47.844;8.966;2022-09-14T12:15:00;95308.00;;;23.01;81.33
58385;BME280;44185;47.844;8.966;2022-09-14T12:17:30;95320.31;;;22.97;82.37
58385;BME280;44185;47.844;8.966;2022-09-14T12:19:57;95312.69;;;22.94;82.44
58385;BME280;44185;47.844;8.966;2022-09-14T12:22:31;95326.41;;;22.92;80.28
58385;BME280;44185;47.844;8.966;2022-09-14T12:25:02;95322.66;;;23.05;80.55
58385;BME280;44185;47.844;8.966;2022-09-14T12:27:29;95319.03;;;22.99;81.03
58385;BME280;44185;47.844;8.966;2022-09-14T12:29:55;95312.22;;;23.09;80.36
58385;BME280;44185;47.844;8.966;2022-09-14T12:32:27;95312.78;;;23.23;81.60
58385;BME280;44185;47.844;8.966;2022-09-14T12:35:43;95317.25;;;23.05;80.82
58385;BME280;44185;47.844;8.966;2022-09-14T12:44:37;95307.16;;;22.88;80.95
58385;BME280;44185;47.844;8.966;2022-09-14T12:49:47;95311.41;;;22.84;81.75
58385;BME280;44185;47.844;8.966;2022-09-14T12:52:23;95323.00;;;22.85;81.69
58385;BME280;44185;47.844;8.966;2022-09-14T12:55:00;95329.22;;;22.73;82.58
58385;BME280;44185;47.844;8.966;2022-09-14T12:57:33;95332.94;;;22.72;82.04
58385;BME280;44185;47.844;8.966;2022-09-14T13:00:09;95334.84;;;22.72;79.79
58385;BME280;44185;47.844;8.966;2022-09-14T13:03:03;95336.78;;;22.64;82.17
58385;BME280;44185;47.844;8.966;2022-09-14T13:05:33;95337.94;;;22.56;81.78
58385;BME280;44185;47.844;8.966;2022-09-14T13:07:59;95338.25;;;22.48;81.86
58385;BME280;44185;47.844;8.966;2022-09-14T13:10:29;95334.41;;;22.56;82.84
58385;BME280;44185;47.844;8.966;2022-09-14T13:12:56;95336.28;;;22.43;79.12
58385;BME280;44185;47.844;8.966;2022-09-14T13:15:25;95338.25;;;22.36;79.40
58385;BME280;44185;47.844;8.966;2022-09-14T13:18:00;95332.13;;;22.29;79.76